createdAt,value
2022-08-26T00:12:38.000Z,60.40
2022-08-26T00:22:38.000Z,56.50
2022-08-26T00:32:38.000Z,65.30
2022-08-26T00:42:39.000Z,66.00
2022-08-26T00:52:39.000Z,57.20
2022-08-26T01:02:40.000Z,57.00
2022-08-26T01:12:40.000Z,45.50
2022-08-26T01:22:40.000Z,63.30
2022-08-26T01:42:41.000Z,54.50
2022-08-26T01:52:42.000Z,67.00
2022-08-26T02:02:42.000Z,63.10
2022-08-26T02:12:42.000Z,55.90
2022-08-26T02:22:43.000Z,60.80
2022-08-26T02:32:43.000Z,51.80
2022-08-26T02:42:44.000Z,56.10
2022-08-26T02:52:44.000Z,57.80
2022-08-26T03:12:45.000Z,66.30
2022-08-26T03:22:46.000Z,59.80
2022-08-26T03:32:46.000Z,72.40
2022-08-26T03:42:47.000Z,60.10
2022-08-26T03:52:47.000Z,55.50
2022-08-26T04:02:48.000Z,43.60
2022-08-26T04:12:48.000Z,45.50
2022-08-26T04:22:49.000Z,64.10
2022-08-26T04:42:50.000Z,70.10
2022-08-26T04:52:50.000Z,47.10
2022-08-26T05:02:51.000Z,54.20
2022-08-26T05:12:52.000Z,65.30
2022-08-26T05:22:52.000Z,65.40
2022-08-26T05:32:53.000Z,71.10
2022-08-26T05:42:53.000Z,61.00
2022-08-26T05:52:54.000Z,65.70
2022-08-26T05:52:54.000Z,65.70
2022-08-26T06:12:54.000Z,72.30
2022-08-26T06:22:55.000Z,82.40
2022-08-26T06:32:55.000Z,54.10
2022-08-26T06:42:55.000Z,62.90
2022-08-26T06:52:56.000Z,59.20
2022-08-26T07:02:56.000Z,89.60
2022-08-26T07:12:56.000Z,58.00
2022-08-26T07:12:56.000Z,58.00
2022-08-26T07:22:56.000Z,72.10
2022-08-26T07:42:56.000Z,53.90
2022-08-26T07:52:57.000Z,43.40
2022-08-26T08:02:57.000Z,45.20
2022-08-26T08:12:57.000Z,58.50
2022-08-26T08:22:57.000Z,56.20
2022-08-26T08:32:57.000Z,44.40
2022-08-26T08:42:56.000Z,47.50
2022-08-26T08:52:56.000Z,45.00
2022-08-26T09:12:56.000Z,35.10
2022-08-26T09:22:56.000Z,41.00
2022-08-26T09:22:56.000Z,41.00
2022-08-26T09:22:56.000Z,41.00
2022-08-26T09:32:56.000Z,42.80
2022-08-26T09:42:56.000Z,45.70
2022-08-26T09:42:56.000Z,45.70
2022-08-26T09:52:55.000Z,31.80
2022-08-26T10:02:55.000Z,43.80
2022-08-26T10:12:55.000Z,53.70
2022-08-26T10:22:54.000Z,26.60
2022-08-26T10:22:54.000Z,26.60
2022-08-26T10:42:54.000Z,39.30
2022-08-26T10:52:53.000Z,33.10
2022-08-26T11:02:53.000Z,40.10
2022-08-26T11:12:53.000Z,42.40
2022-08-26T11:22:52.000Z,15.40
2022-08-26T11:32:52.000Z,36.90
2022-08-26T11:42:51.000Z,36.50
2022-08-26T11:52:51.000Z,37.60
2022-08-26T12:12:50.000Z,34.40
2022-08-26T12:22:49.000Z,38.50
2022-08-26T12:32:49.000Z,37.80
2022-08-26T12:42:49.000Z,30.60
2022-08-26T12:52:49.000Z,28.90
2022-08-26T13:02:49.000Z,37.70
2022-08-26T13:12:49.000Z,46.20
2022-08-26T13:22:49.000Z,42.40
2022-08-26T13:42:50.000Z,47.20
2022-08-26T13:52:50.000Z,42.40
2022-08-26T14:02:50.000Z,57.30
2022-08-26T14:12:50.000Z,62.30
2022-08-26T14:12:50.000Z,62.30
2022-08-26T14:22:50.000Z,42.50
2022-08-26T14:32:50.000Z,24.40
2022-08-26T14:42:50.000Z,28.70
2022-08-26T14:52:50.000Z,26.30
2022-08-26T15:12:50.000Z,37.40
2022-08-26T15:12:50.000Z,37.40
2022-08-26T15:22:50.000Z,57.70
2022-08-26T15:32:50.000Z,11.00
2022-08-26T15:32:50.000Z,11.00
2022-08-26T15:42:50.000Z,21.70
2022-08-26T15:52:50.000Z,15.80
2022-08-26T16:02:51.000Z,24.60
2022-08-26T16:12:51.000Z,24.30
2022-08-26T16:22:51.000Z,12.70
2022-08-26T16:42:51.000Z,29.30
2022-08-26T16:52:51.000Z,12.10
2022-08-26T17:02:51.000Z,18.70
2022-08-26T17:12:51.000Z,25.40
2022-08-26T17:22:52.000Z,15.10
2022-08-26T17:22:52.000Z,15.10
2022-08-26T17:32:52.000Z,20.80
2022-08-26T17:42:52.000Z,22.90
2022-08-26T17:52:52.000Z,35.10
2022-08-26T18:12:53.000Z,24.30
2022-08-26T18:22:53.000Z,36.30
2022-08-26T18:32:53.000Z,37.50
2022-08-26T18:42:53.000Z,24.80
2022-08-26T18:52:53.000Z,35.50
2022-08-26T19:02:54.000Z,31.00
2022-08-26T19:12:54.000Z,39.00
2022-08-26T19:12:54.000Z,39.00
2022-08-26T19:22:54.000Z,32.50
2022-08-26T19:42:55.000Z,51.20
2022-08-26T19:52:55.000Z,44.60
2022-08-26T20:02:55.000Z,76.10
2022-08-26T20:12:56.000Z,69.30
2022-08-26T20:22:56.000Z,72.70
2022-08-26T20:32:56.000Z,57.70
2022-08-26T20:42:57.000Z,46.90
2022-08-26T20:52:57.000Z,41.30
2022-08-26T21:12:57.000Z,49.30
2022-08-26T21:22:58.000Z,49.30
2022-08-26T21:32:58.000Z,64.00
2022-08-26T21:42:58.000Z,53.40
2022-08-26T21:52:59.000Z,56.10
2022-08-26T22:02:59.000Z,57.70
2022-08-26T22:12:59.000Z,46.80
2022-08-26T22:23:00.000Z,75.10
2022-08-26T22:43:01.000Z,68.60
2022-08-26T22:53:01.000Z,39.90
2022-08-26T23:03:02.000Z,37.30
2022-08-26T23:13:02.000Z,59.00
2022-08-26T23:23:02.000Z,43.50
2022-08-26T23:33:03.000Z,54.60
2022-08-26T23:43:03.000Z,64.40
2022-08-26T23:53:04.000Z,78.90
